Time;durP1;ratioP1;P1;durP2;ratioP2;P2;SDS_P1;SDS_P2;PMS_P1;PMS_P2;Temp;Humidity;BMP_temperature;BMP_pressure;BME280_temperature;BME280_humidity;BME280_pressure;Samples;Min_cycle;Max_cycle;Signal;HPM_P1;HPM_P2
2022/09/27 00:01:03;;;;;;;2.88;0.60;;;;;;;8.14;100.00;97053.66;4785519;29;20043;-92
2022/09/27 00:04:12;;;;;;;3.22;0.60;;;;;;;7.78;100.00;97030.34;4783652;29;20040;-91
2022/09/27 00:06:50;;;;;;;3.10;0.60;;;;;;;7.96;100.00;97039.41;4800519;29;20069;-92
2022/09/27 00:09:38;;;;;;;1.85;0.40;;;;;;;7.70;100.00;97040.06;4781945;29;20043;-92
2022/09/27 00:12:19;;;;;;;3.67;0.70;;;;;;;7.76;100.00;97029.53;4785238;29;20165;-91
2022/09/27 00:15:15;;;;;;;;;;;;;;;;;;;;;
2022/09/27 00:18:00;;;;;;;4.00;0.60;;;;;;;7.78;100.00;97038.16;4788145;29;20053;-90
2022/09/27 00:20:43;;;;;;;2.67;0.70;;;;;;;7.84;100.00;97032.78;4800355;29;20103;-92
2022/09/27 00:23:13;;;;;;;2.80;0.55;;;;;;;7.83;100.00;97043.22;4787528;29;20039;-93
2022/09/27 00:29:03;;;;;;;3.30;0.50;;;;;;;7.40;100.00;97039.94;4799921;29;20039;-94
2022/09/27 00:31:31;;;;;;;3.95;0.70;;;;;;;7.34;100.00;97020.19;4786929;29;20047;-94
2022/09/27 00:34:02;;;;;;;4.70;0.80;;;;;;;7.38;100.00;97027.91;4800023;29;20035;-94
2022/09/27 00:36:36;;;;;;;4.38;0.60;;;;;;;7.31;100.00;97007.28;4802119;29;20046;-94
2022/09/27 00:39:04;;;;;;;4.40;0.77;;;;;;;7.43;100.00;97018.25;4805126;29;20044;-94
2022/09/27 00:41:34;;;;;;;4.13;0.60;;;;;;;7.18;100.00;97016.25;4782669;29;20110;-94
2022/09/27 00:44:32;;;;;;;2.13;0.50;;;;;;;7.42;100.00;97016.53;4790002;29;20101;-94
2022/09/27 00:47:29;;;;;;;5.70;0.68;;;;;;;7.02;100.00;97008.00;4787243;29;20564;-94
2022/09/27 00:50:22;;;;;;;3.10;0.65;;;;;;;7.12;100.00;96993.91;4778599;30;20039;-93
2022/09/27 00:53:25;;;;;;;4.28;0.70;;;;;;;7.06;100.00;96998.41;4783789;29;20213;-93
2022/09/27 00:56:12;;;;;;;1.75;0.50;;;;;;;7.14;100.00;97001.66;4780587;29;20076;-94
2022/09/27 00:58:51;;;;;;;3.20;0.73;;;;;;;7.00;100.00;96992.47;4786786;29;20074;-93
2022/09/27 01:01:29;;;;;;;3.28;0.70;;;;;;;7.80;100.00;97005.22;4781221;29;20041;-95
2022/09/27 01:04:25;;;;;;;2.72;0.60;;;;;;;7.64;100.00;96994.38;4780871;29;20039;-94
2022/09/27 01:07:01;;;;;;;4.35;0.70;;;;;;;7.26;100.00;96988.41;4805967;29;20045;-94
2022/09/27 01:09:28;;;;;;;4.75;0.75;;;;;;;7.34;100.00;97001.19;4785826;29;20462;-94
2022/09/27 01:12:04;;;;;;;4.53;0.82;;;;;;;7.45;100.00;96988.81;4804054;29;20069;-93
2022/09/27 01:14:36;;;;;;;5.28;0.90;;;;;;;7.89;100.00;97011.91;4785652;29;20053;-94
2022/09/27 01:17:44;;;;;;;3.25;0.70;;;;;;;7.07;100.00;97000.97;4786452;29;20508;-93
2022/09/27 01:20:50;;;;;;;3.60;0.70;;;;;;;7.29;100.00;97008.22;4802637;29;20027;-93
2022/09/27 01:23:41;;;;;;;6.00;1.08;;;;;;;7.05;100.00;96996.69;4792343;29;20058;-94
2022/09/27 01:26:41;;;;;;;4.68;0.80;;;;;;;6.93;100.00;96993.50;4789352;29;20121;-94
2022/09/27 01:29:43;;;;;;;4.38;0.90;;;;;;;7.28;100.00;96991.81;4789693;29;20143;-93
2022/09/27 01:32:38;;;;;;;3.08;0.70;;;;;;;7.03;100.00;96980.31;4802431;29;20408;-94
2022/09/27 01:35:16;;;;;;;5.90;0.98;;;;;;;6.84;100.00;96984.19;4786377;29;20372;-94
2022/09/27 01:38:05;;;;;;;9.85;1.10;;;;;;;7.45;100.00;96969.81;4804561;29;20031;-94
2022/09/27 01:41:03;;;;;;;4.68;1.00;;;;;;;6.88;100.00;96972.03;4794745;29;20468;-94
2022/09/27 01:43:39;;;;;;;6.70;1.60;;;;;;;6.71;100.00;96964.66;4788958;29;20057;-94
2022/09/27 01:46:29;;;;;;;7.13;1.60;;;;;;;6.75;100.00;96958.50;4789070;29;20039;-93
2022/09/27 01:49:12;;;;;;;7.15;1.75;;;;;;;6.77;100.00;96959.31;4801794;29;20450;-93
2022/09/27 01:51:45;;;;;;;6.72;1.83;;;;;;;6.59;100.00;96962.31;4804212;29;20410;-94
2022/09/27 01:54:22;;;;;;;7.35;1.52;;;;;;;7.34;100.00;96946.72;4786916;29;20034;-94
2022/09/27 01:57:01;;;;;;;7.57;1.50;;;;;;;6.82;100.00;96954.03;4788876;29;20034;-94
2022/09/27 01:59:44;;;;;;;7.93;1.80;;;;;;;7.38;100.00;96953.53;4790024;29;20039;-94
2022/09/27 02:02:11;;;;;;;7.32;1.77;;;;;;;6.95;100.00;96949.41;4800819;24;20143;-95
2022/09/27 02:04:47;;;;;;;7.75;1.73;;;;;;;6.98;100.00;96931.19;4755737;30;20043;-94
2022/09/27 02:07:36;;;;;;;5.38;1.40;;;;;;;7.12;100.00;96952.44;4754194;30;20056;-95
2022/09/27 02:10:13;;;;;;;8.13;1.48;;;;;;;7.26;100.00;96939.13;4762959;30;20036;-93
2022/09/27 02:13:27;;;;;;;11.25;2.05;;;;;;;7.19;100.00;96945.38;4766206;30;20035;-95
2022/09/27 02:16:27;;;;;;;8.15;1.98;;;;;;;7.37;100.00;96935.44;4764014;30;20068;-95
2022/09/27 02:19:14;;;;;;;11.20;1.85;;;;;;;7.35;100.00;96922.50;4770541;30;20108;-95
2022/09/27 02:22:17;;;;;;;8.32;1.45;;;;;;;7.32;100.00;96933.81;4753752;30;20043;-94
2022/09/27 02:25:00;;;;;;;9.77;1.50;;;;;;;7.31;100.00;96921.72;4765431;30;20039;-94
2022/09/27 02:27:46;;;;;;;6.53;1.33;;;;;;;7.41;100.00;96917.16;4764976;30;20039;-95
2022/09/27 02:30:14;;;;;;;7.97;1.23;;;;;;;7.24;100.00;96898.59;4750305;30;20039;-93
2022/09/27 02:32:40;;;;;;;8.30;1.60;;;;;;;7.37;100.00;96909.50;4766915;30;20476;-95
2022/09/27 02:35:12;;;;;;;8.30;1.42;;;;;;;7.41;100.00;96893.81;4768762;30;20117;-94
2022/09/27 02:37:38;;;;;;;9.23;1.55;;;;;;;7.64;100.00;96894.94;4762875;30;20132;-95
2022/09/27 02:40:06;;;;;;;7.25;1.20;;;;;;;7.50;100.00;96888.38;4768229;30;20060;-95
2022/09/27 02:42:33;;;;;;;11.65;1.48;;;;;;;7.61;100.00;96879.44;4753202;30;20040;-94
2022/09/27 02:44:59;;;;;;;9.77;1.73;;;;;;;7.60;100.00;96852.66;4753297;30;20046;-94
2022/09/27 02:47:27;;;;;;;7.55;1.33;;;;;;;8.17;100.00;96874.41;4766738;30;20040;-94
2022/09/27 02:50:16;;;;;;;10.60;1.38;;;;;;;7.72;100.00;96866.19;4754002;30;20046;-94
2022/09/27 02:52:47;;;;;;;8.98;1.30;;;;;;;7.70;100.00;96871.44;4766130;30;20113;-94
2022/09/27 02:55:35;;;;;;;12.35;1.65;;;;;;;7.62;100.00;96871.63;4767465;30;20058;-95
2022/09/27 02:58:38;;;;;;;12.18;1.80;;;;;;;7.67;100.00;96876.72;4753795;30;20040;-94
2022/09/27 03:01:35;;;;;;;12.65;1.70;;;;;;;7.92;100.00;96855.22;4767402;30;20075;-96
2022/09/27 03:04:12;;;;;;;9.50;2.00;;;;;;;7.60;100.00;96864.78;4762534;30;20119;-91
2022/09/27 03:06:45;;;;;;;8.20;1.45;;;;;;;7.52;100.00;96852.03;4753769;30;20038;-93
2022/09/27 03:09:18;;;;;;;17.73;1.88;;;;;;;7.67;100.00;96861.13;4764676;30;20059;-92
2022/09/27 03:11:46;;;;;;;8.70;1.80;;;;;;;7.73;100.00;96840.19;4767406;30;20093;-94
2022/09/27 03:14:13;;;;;;;16.25;1.77;;;;;;;7.55;100.00;96841.56;4762077;30;20127;-92
2022/09/27 03:16:38;;;;;;;12.25;1.67;;;;;;;7.66;100.00;96849.06;4751006;30;20043;-92
2022/09/27 03:19:04;;;;;;;9.88;1.30;;;;;;;7.64;100.00;96840.44;4747598;30;20034;-93
2022/09/27 03:21:32;;;;;;;11.32;1.75;;;;;;;7.79;100.00;96839.16;4757919;30;20036;-93
2022/09/27 03:24:01;;;;;;;8.65;1.40;;;;;;;7.55;100.00;96822.56;4748658;30;20043;-92
2022/09/27 03:26:35;;;;;;;7.88;1.52;;;;;;;7.69;100.00;96830.78;4751365;30;20043;-93
2022/09/27 03:29:01;;;;;;;9.50;1.80;;;;;;;7.59;100.00;96831.97;4762812;30;20599;-92
2022/09/27 03:31:34;;;;;;;13.05;1.60;;;;;;;7.65;100.00;96824.00;4753939;30;20035;-92
2022/09/27 03:33:59;;;;;;;10.70;1.65;;;;;;;7.66;100.00;96810.97;4752177;30;20043;-91
2022/09/27 03:36:25;;;;;;;8.85;1.60;;;;;;;7.68;100.00;96827.38;4766753;30;20044;-92
2022/09/27 03:38:50;;;;;;;10.10;1.50;;;;;;;7.78;100.00;96824.47;4750567;30;20048;-92
2022/09/27 03:41:18;;;;;;;8.27;1.35;;;;;;;10.29;100.00;96817.75;4753796;30;20413;-93
2022/09/27 03:43:44;;;;;;;14.50;1.95;;;;;;;7.75;100.00;96812.47;4767093;30;20545;-94
2022/09/27 03:46:10;;;;;;;7.60;1.48;;;;;;;7.82;100.00;96810.53;4764897;30;20038;-93
2022/09/27 03:48:35;;;;;;;11.70;1.80;;;;;;;7.75;100.00;96811.59;4762582;30;20032;-94
2022/09/27 03:51:07;;;;;;;9.88;1.63;;;;;;;7.66;100.00;96807.53;4751688;30;20038;-93
2022/09/27 03:53:35;;;;;;;7.10;1.33;;;;;;;7.78;100.00;96802.00;4755559;30;20020;-93
2022/09/27 03:56:00;;;;;;;9.48;1.30;;;;;;;7.51;100.00;96796.72;4772155;30;20043;-93
2022/09/27 03:58:29;;;;;;;8.68;1.77;;;;;;;7.63;100.00;96805.03;4758709;30;20035;-93
2022/09/27 04:01:00;;;;;;;7.63;1.20;;;;;;;7.71;100.00;96799.63;4759922;30;20811;-96
2022/09/27 04:03:31;;;;;;;14.13;2.47;;;;;;;7.58;100.00;96809.50;4765513;30;20071;-93
2022/09/27 04:05:59;;;;;;;10.32;1.80;;;;;;;7.51;100.00;96804.50;4767066;30;20039;-93
2022/09/27 04:08:30;;;;;;;10.93;1.60;;;;;;;7.38;100.00;96794.53;4768798;30;20541;-93
2022/09/27 04:10:56;;;;;;;9.13;1.90;;;;;;;7.49;100.00;96793.31;4755110;30;20040;-92
2022/09/27 04:13:21;;;;;;;8.52;2.17;;;;;;;7.72;100.00;96804.75;4754461;30;20038;-93
2022/09/27 04:15:47;;;;;;;11.63;1.77;;;;;;;7.56;100.00;96796.56;4772649;30;20634;-92
2022/09/27 04:18:13;;;;;;;12.73;1.77;;;;;;;7.50;100.00;96791.56;4756339;30;20028;-93
2022/09/27 04:20:38;;;;;;;7.22;1.45;;;;;;;7.31;100.00;96789.47;4752677;30;20067;-93
2022/09/27 04:23:04;;;;;;;14.40;1.80;;;;;;;7.28;100.00;96793.88;4753644;30;20066;-93
2022/09/27 04:25:31;;;;;;;16.00;1.95;;;;;;;7.29;100.00;96787.81;4768405;30;20032;-93
2022/09/27 04:27:57;;;;;;;9.43;1.95;;;;;;;7.26;100.00;96783.56;4754644;30;20031;-93
2022/09/27 04:30:25;;;;;;;12.70;2.28;;;;;;;7.27;100.00;96784.44;4756296;30;20031;-92
2022/09/27 04:32:50;;;;;;;10.88;1.65;;;;;;;7.42;100.00;96785.72;4757243;30;20051;-95
2022/09/27 04:38:00;;;;;;;13.02;2.13;;;;;;;7.28;100.00;96778.34;4770726;30;20554;-94
2022/09/27 04:40:27;;;;;;;16.15;2.00;;;;;;;7.13;100.00;96769.25;4756258;30;20036;-92
2022/09/27 04:42:53;;;;;;;9.73;1.77;;;;;;;7.17;100.00;96769.13;4755321;30;20040;-93
2022/09/27 04:45:19;;;;;;;7.85;1.63;;;;;;;7.01;100.00;96765.25;4753556;30;20040;-94
2022/09/27 04:47:48;;;;;;;10.38;1.70;;;;;;;7.12;100.00;96763.22;4755598;30;20031;-95
2022/09/27 04:50:16;;;;;;;14.50;1.88;;;;;;;6.98;100.00;96767.94;4767175;30;20036;-92
2022/09/27 04:53:03;;;;;;;12.05;2.10;;;;;;;6.88;100.00;96754.38;4752428;30;20124;-93
2022/09/27 04:55:30;;;;;;;15.40;2.40;;;;;;;6.89;100.00;96752.59;4752780;30;20042;-93
2022/09/27 04:57:56;;;;;;;12.38;2.05;;;;;;;7.14;100.00;96758.84;4754332;30;20288;-93
2022/09/27 05:00:21;;;;;;;13.15;2.50;;;;;;;6.96;100.00;96749.81;4772303;30;20553;-94
2022/09/27 05:02:47;;;;;;;13.07;2.20;;;;;;;6.96;100.00;96743.81;4753744;30;20027;-94
2022/09/27 05:05:15;;;;;;;16.02;2.60;;;;;;;7.21;100.00;96748.28;4754317;30;20489;-93
2022/09/27 05:07:43;;;;;;;16.30;2.60;;;;;;;6.98;100.00;96734.22;4752300;30;20040;-94
2022/09/27 05:10:09;;;;;;;15.18;2.63;;;;;;;7.25;100.00;96755.97;4751111;30;20035;-94
2022/09/27 05:12:35;;;;;;;14.30;2.38;;;;;;;7.22;100.00;96757.78;4752460;30;20105;-93
2022/09/27 05:15:01;;;;;;;11.52;2.35;;;;;;;7.17;100.00;96760.50;4766239;30;20586;-95
2022/09/27 05:17:26;;;;;;;12.90;2.25;;;;;;;7.26;100.00;96759.41;4760892;30;20032;-93
2022/09/27 05:19:52;;;;;;;10.80;2.28;;;;;;;7.30;100.00;96763.59;4764953;30;20060;-94
2022/09/27 05:22:18;;;;;;;15.57;2.40;;;;;;;7.28;100.00;96765.38;4749700;30;20051;-94
2022/09/27 05:24:44;;;;;;;9.70;2.30;;;;;;;7.28;100.00;96765.38;4763840;30;20085;-94
2022/09/27 05:27:15;;;;;;;12.48;1.92;;;;;;;7.21;100.00;96774.22;4749821;30;20488;-95
2022/09/27 05:29:45;;;;;;;12.18;2.03;;;;;;;7.33;100.00;96769.56;4760729;30;20103;-95
2022/09/27 05:32:12;;;;;;;11.73;2.30;;;;;;;7.31;100.00;96765.31;4761917;30;20128;-94
2022/09/27 05:34:37;;;;;;;10.20;2.00;;;;;;;7.32;100.00;96764.41;4761533;30;20127;-95
2022/09/27 05:37:08;;;;;;;14.40;2.67;;;;;;;7.47;100.00;96776.94;4746686;30;20556;-94
2022/09/27 05:39:34;;;;;;;14.13;2.13;;;;;;;10.23;100.00;96761.53;4754604;30;20249;-95
2022/09/27 05:41:59;;;;;;;11.32;2.30;;;;;;;10.57;100.00;96757.59;4749445;30;20443;-95
2022/09/27 05:44:25;;;;;;;9.48;1.77;;;;;;;10.10;100.00;96747.28;4762932;30;20024;-95
2022/09/27 05:46:53;;;;;;;10.30;1.88;;;;;;;10.66;100.00;96740.75;4763174;30;20039;-94
2022/09/27 05:49:19;;;;;;;10.32;1.83;;;;;;;10.66;100.00;96734.66;4759461;30;20164;-93
2022/09/27 05:51:44;;;;;;;17.83;1.77;;;;;;;10.47;100.00;96730.22;4762359;30;20165;-95
2022/09/27 05:54:13;;;;;;;16.15;1.90;;;;;;;10.39;100.00;96740.09;4762298;30;20043;-94
2022/09/27 05:56:38;;;;;;;12.45;1.85;;;;;;;10.50;100.00;96755.31;4764125;30;20455;-94
2022/09/27 05:59:03;;;;;;;7.53;1.70;;;;;;;10.59;100.00;96749.69;4749792;30;20530;-94
2022/09/27 06:01:29;;;;;;;11.38;1.58;;;;;;;7.64;100.00;96747.06;4751586;30;20062;-93
2022/09/27 06:03:57;;;;;;;9.68;1.67;;;;;;;7.73;100.00;96738.16;4772697;30;20082;-96
2022/09/27 06:06:33;;;;;;;16.38;2.55;;;;;;;7.51;100.00;96739.66;4752344;30;20025;-95
2022/09/27 06:09:01;;;;;;;9.48;1.35;;;;;;;10.04;100.00;96731.94;4753551;30;20057;-94
2022/09/27 06:11:27;;;;;;;8.15;1.45;;;;;;;7.60;100.00;96733.34;4769492;30;20044;-95
2022/09/27 06:13:53;;;;;;;10.80;1.60;;;;;;;7.66;100.00;96740.09;4752093;30;20062;-94
2022/09/27 06:16:18;;;;;;;11.95;2.17;;;;;;;9.13;100.00;96759.59;4749890;30;20059;-95
2022/09/27 06:18:44;;;;;;;7.65;1.65;;;;;;;9.86;100.00;96746.50;4762123;30;20165;-93
2022/09/27 06:21:15;;;;;;;8.52;1.50;;;;;;;8.08;100.00;96738.81;4766153;30;20130;-94
2022/09/27 06:23:41;;;;;;;11.88;1.90;;;;;;;7.56;100.00;96738.66;4769640;30;20036;-94
2022/09/27 06:26:24;;;;;;;9.98;1.52;;;;;;;7.71;100.00;96738.22;4772706;30;20058;-96
2022/09/27 06:29:03;;;;;;;11.82;1.63;;;;;;;7.67;100.00;96742.63;4759458;30;20039;-96
2022/09/27 06:31:31;;;;;;;11.65;1.90;;;;;;;7.72;100.00;96734.69;4756844;30;20138;-96
2022/09/27 06:33:57;;;;;;;8.88;1.40;;;;;;;7.99;100.00;96743.41;4765653;30;20047;-96
2022/09/27 06:36:23;;;;;;;9.48;1.35;;;;;;;10.53;100.00;96758.63;4767025;30;20032;-96
2022/09/27 06:38:48;;;;;;;7.68;1.35;;;;;;;10.40;100.00;96749.63;4755907;30;20039;-96
2022/09/27 06:41:15;;;;;;;18.02;2.33;;;;;;;8.84;100.00;96745.00;4772331;30;20136;-95
2022/09/27 06:43:41;;;;;;;6.53;1.40;;;;;;;8.00;100.00;96734.72;4755265;30;20216;-96
2022/09/27 06:46:08;;;;;;;8.32;1.40;;;;;;;7.89;100.00;96730.75;4772523;30;20273;-96
2022/09/27 06:48:47;;;;;;;11.45;1.55;;;;;;;7.95;100.00;96735.75;4753705;30;20090;-96
2022/09/27 06:51:35;;;;;;;9.02;1.45;;;;;;;8.48;100.00;96734.97;4770869;30;20031;-96
2022/09/27 06:54:03;;;;;;;11.77;1.50;;;;;;;7.72;100.00;96724.31;4754437;30;20039;-96
2022/09/27 06:56:29;;;;;;;9.75;1.40;;;;;;;7.85;100.00;96725.66;4758149;30;20162;-96
2022/09/27 07:01:51;;;;;;;7.35;1.13;;;;;;;7.92;100.00;96721.13;4766678;30;20453;-96
2022/09/27 07:04:33;;;;;;;10.13;1.23;;;;;;;8.01;100.00;96719.97;4756560;30;20056;-96
2022/09/27 07:07:25;;;;;;;8.45;1.30;;;;;;;8.36;100.00;96741.38;4773208;30;20043;-96
2022/09/27 07:10:02;;;;;;;9.57;1.50;;;;;;;10.53;100.00;96726.50;4772856;30;20043;-96
2022/09/27 07:12:35;;;;;;;10.55;1.50;;;;;;;11.37;100.00;96722.03;4773134;30;20115;-96
2022/09/27 07:15:47;;;;;;;10.43;1.37;;;;;;;8.58;100.00;96735.50;4772104;30;20044;-96
2022/09/27 07:18:19;;;;;;;5.80;1.50;;;;;;;8.57;100.00;96729.44;4772623;30;20566;-96
2022/09/27 07:21:15;;;;;;;10.75;1.90;;;;;;;11.39;100.00;96724.56;4757236;30;20039;-96
2022/09/27 07:24:03;;;;;;;9.05;1.35;;;;;;;8.71;100.00;96731.56;4765141;30;20039;-96
2022/09/27 07:26:46;;;;;;;8.65;1.40;;;;;;;8.77;100.00;96717.50;4765138;30;20035;-96
2022/09/27 07:29:36;;;;;;;14.32;1.77;;;;;;;8.68;100.00;96732.53;4767817;30;20020;-96
2022/09/27 07:32:07;;;;;;;11.05;1.70;;;;;;;8.39;100.00;96723.06;4780372;30;20042;-96
2022/09/27 07:34:39;;;;;;;9.88;1.67;;;;;;;10.55;100.00;96722.09;4780412;30;20035;-96
2022/09/27 07:37:06;;;;;;;6.45;1.10;;;;;;;8.50;100.00;96720.16;4762800;30;20091;-96
2022/09/27 07:39:35;;;;;;;7.85;1.60;;;;;;;8.86;100.00;96725.00;4763333;30;20146;-96
2022/09/27 07:42:05;;;;;;;6.28;1.30;;;;;;;9.19;100.00;96735.94;4762900;30;20031;-95
2022/09/27 07:44:34;;;;;;;12.10;1.75;;;;;;;8.64;100.00;96717.97;4778089;30;20023;-96
2022/09/27 07:47:36;;;;;;;9.75;1.73;;;;;;;8.50;100.00;96707.16;4780500;30;20048;-95
2022/09/27 07:50:15;;;;;;;5.35;1.30;;;;;;;8.43;100.00;96716.88;4761968;30;20061;-96
2022/09/27 07:53:49;;;;;;;6.57;1.60;;;;;;;8.59;100.00;96721.59;4769922;30;20038;-96
2022/09/27 07:56:26;;;;;;;8.77;1.52;;;;;;;8.61;100.00;96723.25;4785401;30;20055;-96
2022/09/27 07:59:37;;;;;;;7.13;1.20;;;;;;;8.62;100.00;96735.34;4768712;30;20031;-96
2022/09/27 08:02:46;;;;;;;10.85;1.50;;;;;;;8.42;100.00;96716.94;4785476;30;20052;-96
2022/09/27 08:05:23;;;;;;;5.88;1.17;;;;;;;8.36;100.00;96711.06;4747498;30;20036;-96
2022/09/27 08:08:25;;;;;;;8.85;1.75;;;;;;;8.97;100.00;96722.03;4763577;30;20043;-96
2022/09/27 08:14:26;;;;;;;12.40;1.85;;;;;;;9.01;100.00;96708.84;4759523;30;20069;-96
2022/09/27 08:17:32;;;;;;;8.27;1.60;;;;;;;9.07;100.00;96718.19;4744332;30;20087;-96
2022/09/27 08:20:10;;;;;;;7.85;1.60;;;;;;;9.38;100.00;96724.88;4766220;30;20035;-96
2022/09/27 08:23:14;;;;;;;11.05;1.70;;;;;;;9.27;100.00;96707.06;4758089;30;20044;-96
2022/09/27 08:26:33;;;;;;;12.43;1.65;;;;;;;9.55;100.00;96713.84;4749220;30;20036;-96
2022/09/27 08:29:25;;;;;;;8.60;1.45;;;;;;;9.84;100.00;96727.47;4737166;30;20064;-96
2022/09/27 08:32:13;;;;;;;9.43;1.45;;;;;;;9.47;100.00;96713.28;4753354;30;20071;-96
2022/09/27 08:34:43;;;;;;;11.95;2.25;;;;;;;9.66;100.00;96723.81;4721388;30;20057;-95
2022/09/27 08:39:01;;;;;;;;;;;;;;;;;;;;;
2022/09/27 08:41:42;;;;;;;;;;;;;;;;;;;;;
2022/09/27 08:44:53;;;;;;;7.93;1.42;;;;;;;10.02;100.00;96741.53;4726462;30;20250;-96
2022/09/27 08:51:11;;;;;;;9.50;1.50;;;;;;;9.66;100.00;96726.44;4710856;30;20100;-95
2022/09/27 08:53:52;;;;;;;11.50;1.60;;;;;;;10.00;100.00;96730.34;4726670;30;20501;-95
2022/09/27 08:56:36;;;;;;;8.05;1.38;;;;;;;10.09;100.00;96737.81;4735415;30;21487;-96
2022/09/27 08:59:27;;;;;;;10.13;1.30;;;;;;;10.22;100.00;96743.38;4752532;30;20499;-96
2022/09/27 09:02:20;;;;;;;12.13;1.38;;;;;;;10.17;100.00;96737.50;4779197;30;20068;-96
2022/09/27 09:08:06;;;;;;;6.57;1.10;;;;;;;9.80;100.00;96737.19;4779898;30;20035;-95
2022/09/27 09:25:58;;;;;;;7.13;1.20;;;;;;;10.17;100.00;96735.72;4782893;30;20099;-96
2022/09/27 09:28:51;;;;;;;8.32;1.20;;;;;;;9.94;100.00;96720.16;4706980;30;20040;-96
2022/09/27 09:32:00;;;;;;;8.18;1.25;;;;;;;10.57;100.00;96728.09;4698108;30;20387;-96
2022/09/27 09:34:41;;;;;;;6.03;1.00;;;;;;;10.25;100.00;96717.19;4714276;30;20033;-95
2022/09/27 09:37:33;;;;;;;10.75;1.75;;;;;;;10.20;100.00;96732.16;4714764;30;20463;-95
2022/09/27 09:40:43;;;;;;;4.80;1.10;;;;;;;10.35;100.00;96730.72;4713976;30;20045;-96
2022/09/27 09:43:15;;;;;;;8.98;1.25;;;;;;;10.59;100.00;96731.47;4648313;30;20484;-96
2022/09/27 09:45:47;;;;;;;7.57;1.48;;;;;;;11.48;100.00;96718.91;4644598;30;20046;-94
2022/09/27 09:48:40;;;;;;;6.13;1.08;;;;;;;12.25;100.00;96730.19;4648828;30;20162;-94
2022/09/27 09:51:31;;;;;;;9.18;1.25;;;;;;;13.47;100.00;96726.66;4649341;30;20034;-96
2022/09/27 09:54:55;;;;;;;;;;;;;;;;;;;;;
2022/09/27 09:57:35;;;;;;;6.95;1.13;;;;;;;13.07;100.00;96723.47;4662220;30;20047;-96
2022/09/27 10:00:49;;;;;;;;;;;;;;;;;;;;;
2022/09/27 10:23:44;;;;;;;;;;;;;;;;;;;;;
2022/09/27 10:49:37;;;;;;;6.57;1.05;;;;;;;11.23;100.00;96683.50;4715537;30;20052;-95
2022/09/27 10:52:52;;;;;;;7.70;1.02;;;;;;;11.33;100.00;96667.41;4749563;30;20054;-94
2022/09/27 10:56:07;;;;;;;5.53;0.98;;;;;;;11.93;100.00;96675.06;4684214;30;20060;-95
2022/09/27 11:06:19;;;;;;;4.80;1.00;;;;;;;12.09;100.00;96678.66;4617580;31;20176;-95
2022/09/27 11:09:37;;;;;;;5.82;0.93;;;;;;;12.25;100.00;96670.91;4610275;31;20111;-95
2022/09/27 11:12:45;;;;;;;;;;;;;;;;;;;;;
2022/09/27 11:15:56;;;;;;;7.10;0.93;;;;;;;12.24;100.00;96657.94;4612135;31;20046;-96
2022/09/27 11:18:43;;;;;;;5.40;1.02;;;;;;;12.04;100.00;96669.34;4612958;31;20047;-95
2022/09/27 11:21:41;;;;;;;;;;;;;;;;;;;;;
2022/09/27 11:24:40;;;;;;;7.38;0.82;;;;;;;12.27;100.00;96674.28;4614017;30;20514;-96
2022/09/27 11:27:32;;;;;;;7.25;1.15;;;;;;;11.94;100.00;96654.13;4611524;31;20165;-96
2022/09/27 11:33:31;;;;;;;8.18;1.13;;;;;;;11.72;100.00;96661.28;4610185;31;20048;-95
2022/09/27 11:36:20;;;;;;;5.93;1.13;;;;;;;11.98;100.00;96672.25;4615348;31;20069;-96
2022/09/27 11:38:57;;;;;;;6.53;1.00;;;;;;;11.71;100.00;96668.25;4634313;30;20058;-96
2022/09/27 11:45:00;;;;;;;5.00;0.90;;;;;;;11.85;100.00;96670.19;4659498;30;20088;-96
2022/09/27 11:48:13;;;;;;;;;;;;;;;;;;;;;
2022/09/27 12:01:41;;;;;;;;;;;;;;;;;;;;;
2022/09/27 12:05:04;;;;;;;;;;;;;;;;;;;;;
2022/09/27 12:07:50;;;;;;;4.53;0.75;;;;;;;12.98;100.00;96647.19;4630741;30;20039;-96
2022/09/27 12:14:26;;;;;;;4.55;0.90;;;;;;;12.73;100.00;96655.44;4685811;30;20049;-96
2022/09/27 12:17:33;;;;;;;;;;;;;;;;;;;;;
2022/09/27 12:20:29;;;;;;;4.90;1.15;;;;;;;12.87;100.00;96661.72;4672662;30;20041;-95
2022/09/27 12:49:16;;;;;;;6.05;1.00;;;;;;;13.25;100.00;96612.59;4739851;24;20071;-92
2022/09/27 12:52:24;;;;;;;;;;;;;;;;;;;;;
2022/09/27 12:55:09;;;;;;;5.80;0.85;;;;;;;13.23;100.00;96609.19;4781720;29;20047;-92
2022/09/27 13:01:30;;;;;;;8.88;1.15;;;;;;;12.69;100.00;96613.84;4799275;29;20122;-92
2022/09/27 13:04:37;;;;;;;5.60;0.70;;;;;;;12.62;100.00;96611.56;4791946;29;20039;-92
2022/09/27 13:07:34;;;;;;;6.45;0.80;;;;;;;13.49;100.00;96614.84;4748931;30;20056;-92
2022/09/27 13:10:40;;;;;;;6.00;0.82;;;;;;;12.94;100.00;96614.25;4753258;30;20028;-91
2022/09/27 13:14:05;;;;;;;6.10;0.80;;;;;;;12.85;100.00;96616.50;4761492;30;20043;-91
2022/09/27 13:16:46;;;;;;;10.95;1.15;;;;;;;12.43;100.00;96608.19;4754102;30;20031;-92
2022/09/27 13:19:51;;;;;;;5.30;0.75;;;;;;;12.97;100.00;96606.22;4755486;30;20605;-92
2022/09/27 13:22:53;;;;;;;4.40;0.90;;;;;;;13.14;100.00;96605.31;4740423;30;20492;-93
2022/09/27 13:25:58;;;;;;;5.47;0.80;;;;;;;13.38;100.00;96599.72;4756976;30;20150;-93
2022/09/27 13:28:41;;;;;;;6.20;0.80;;;;;;;13.19;100.00;96604.22;4755813;30;20476;-94
2022/09/27 13:31:13;;;;;;;6.20;0.98;;;;;;;12.96;100.00;96593.22;4741639;30;20059;-93
2022/09/27 13:34:06;;;;;;;7.28;1.35;;;;;;;13.21;100.00;96594.50;4756233;30;20044;-93
2022/09/27 13:37:24;;;;;;;5.35;0.82;;;;;;;13.16;100.00;96610.47;4745022;30;20436;-94
2022/09/27 13:44:13;;;;;;;5.60;1.35;;;;;;;12.13;100.00;96601.78;4759779;29;20034;-93
2022/09/27 13:47:39;;;;;;;4.57;0.68;;;;;;;12.07;100.00;96596.88;4734027;30;20067;-93
2022/09/27 13:50:23;;;;;;;5.38;0.93;;;;;;;12.34;100.00;96600.81;4722548;30;20056;-94
2022/09/27 13:56:45;;;;;;;;;;;;;;;;;;;;;
2022/09/27 13:59:33;;;;;;;4.50;0.65;;;;;;;12.58;100.00;96593.47;4735832;30;20048;-94
2022/09/27 14:02:18;;;;;;;10.95;1.38;;;;;;;12.29;100.00;96575.75;4730539;30;20060;-92
2022/09/27 14:04:54;;;;;;;7.35;1.90;;;;;;;12.94;100.00;96575.00;4724779;30;20784;-93
2022/09/27 14:07:53;;;;;;;7.85;1.05;;;;;;;13.19;100.00;96588.53;4736285;30;20045;-94
2022/09/27 14:10:57;;;;;;;7.55;0.98;;;;;;;13.51;100.00;96560.59;4742971;30;20509;-93
2022/09/27 14:13:38;;;;;;;6.53;1.23;;;;;;;13.53;100.00;96563.13;4747838;30;20043;-94
2022/09/27 14:16:07;;;;;;;6.45;1.05;;;;;;;13.34;100.00;96569.34;4730721;30;20311;-91
2022/09/27 14:19:03;;;;;;;4.45;0.80;;;;;;;13.21;100.00;96565.72;4734908;30;20051;-93
2022/09/27 14:22:17;;;;;;;5.60;0.95;;;;;;;13.15;100.00;96569.50;4739370;30;20490;-93
2022/09/27 14:25:20;;;;;;;6.00;0.82;;;;;;;13.78;100.00;96550.31;4786190;29;20184;-94
2022/09/27 14:28:15;;;;;;;5.68;0.95;;;;;;;13.62;100.00;96580.94;4773653;29;20073;-92
2022/09/27 14:31:16;;;;;;;;;;;;;;;;;;;;;
2022/09/27 14:34:27;;;;;;;6.85;0.70;;;;;;;13.28;100.00;96575.78;4770171;29;20047;-93
2022/09/27 14:39:42;;;;;;;4.38;0.70;;;;;;;13.78;100.00;96573.91;4786015;29;20128;-93
2022/09/27 14:42:25;;;;;;;7.25;1.17;;;;;;;13.18;100.00;96576.34;4782445;29;20400;-92
2022/09/27 14:44:53;;;;;;;;;;;;;;;13.76;100.00;96567.06;4769664;30;20047;-92
2022/09/27 14:50:50;;;;;;;7.10;1.05;;;;;;;13.46;100.00;96557.41;4786280;29;20099;-93
2022/09/27 14:53:57;;;;;;;4.03;0.80;;;;;;;13.21;100.00;96557.84;4780716;29;20054;-93
2022/09/27 15:03:23;;;;;;;9.50;1.45;;;;;;;13.75;100.00;96555.75;4779071;29;20078;-93
2022/09/27 15:09:54;;;;;;;6.05;0.75;;;;;;;13.80;100.00;96563.34;4771730;29;20368;-94
2022/09/27 15:13:16;;;;;;;;;;;;;;;;;;;;;
2022/09/27 15:19:29;;;;;;;6.22;0.77;;;;;;;14.03;100.00;96561.16;4762260;30;20066;-92
2022/09/27 15:21:45;;;;;;;4.43;0.75;;;;;;;14.11;100.00;96554.56;4772056;29;20074;-94
2022/09/27 15:27:52;;;;;;;5.65;0.85;;;;;;;12.06;100.00;96578.69;4763799;30;20571;-95
2022/09/27 15:31:02;;;;;;;4.13;0.75;;;;;;;11.25;100.00;96597.31;4773027;30;20833;-94
2022/09/27 15:34:24;;;;;;;;;;;;;;;;;;;;;
2022/09/27 15:40:33;;;;;;;4.90;0.85;;;;;;;11.27;100.00;96578.06;4714929;30;20075;-94
2022/09/27 15:46:55;;;;;;;;;;;;;;;10.93;100.00;96589.22;4689455;30;20130;-93
2022/09/27 15:49:53;;;;;;;6.32;0.85;;;;;;;10.87;100.00;96582.53;4667671;30;19919;-94
2022/09/27 15:53:13;;;;;;;6.20;0.73;;;;;;;10.91;100.00;96589.28;4664460;30;20065;-93
2022/09/27 15:55:52;;;;;;;6.20;1.10;;;;;;;10.70;100.00;96578.06;4650039;30;20073;-94